createdAt,value
2022-12-17T00:01:49.074Z,11.63
2022-12-17T00:04:34.317Z,11.64
2022-12-17T00:07:19.674Z,11.64
2022-12-17T00:10:05.438Z,11.66
2022-12-17T00:12:50.806Z,11.68
2022-12-17T00:15:37.108Z,11.68
2022-12-17T00:18:24.551Z,11.71
2022-12-17T00:21:17.627Z,11.65
2022-12-17T00:24:03.086Z,11.65
2022-12-17T00:26:48.737Z,11.66
2022-12-17T00:29:59.746Z,11.68
2022-12-17T00:32:45.250Z,11.66
2022-12-17T00:35:30.610Z,11.67
2022-12-17T00:38:16.219Z,11.67
2022-12-17T00:41:01.713Z,11.68
2022-12-17T00:43:47.163Z,11.71
2022-12-17T00:46:33.564Z,11.73
2022-12-17T00:49:19.007Z,11.76
2022-12-17T00:52:04.655Z,11.76
2022-12-17T00:54:50.194Z,11.74
2022-12-17T00:57:35.630Z,11.72
2022-12-17T01:00:21.462Z,11.73
2022-12-17T01:03:07.146Z,11.77
2022-12-17T01:05:52.571Z,11.75
2022-12-17T01:08:38.101Z,11.75
2022-12-17T01:11:26.882Z,11.73
2022-12-17T01:14:13.083Z,11.73
2022-12-17T01:16:59.624Z,11.74
2022-12-17T01:19:44.747Z,11.74
2022-12-17T01:22:30.148Z,11.76
2022-12-17T01:25:15.443Z,11.74
2022-12-17T01:28:00.816Z,11.78
2022-12-17T01:30:46.097Z,11.75
2022-12-17T01:33:31.770Z,11.77
2022-12-17T01:36:18.306Z,11.78
2022-12-17T01:39:04.239Z,11.80
2022-12-17T01:41:49.954Z,11.79
2022-12-17T01:45:04.859Z,11.74
2022-12-17T01:48:11.775Z,11.74
2022-12-17T01:51:13.346Z,11.72
2022-12-17T01:54:07.895Z,11.72
2022-12-17T01:56:57.887Z,11.69
2022-12-17T02:00:09.487Z,11.72
2022-12-17T02:03:01.370Z,11.72
2022-12-17T02:05:59.611Z,11.70
2022-12-17T02:09:23.497Z,11.71
2022-12-17T02:12:24.077Z,11.72
2022-12-17T02:15:21.865Z,11.68
2022-12-17T02:18:12.529Z,11.61
2022-12-17T02:21:16.103Z,11.56
2022-12-17T02:24:02.686Z,11.57
2022-12-17T02:27:01.481Z,11.58
2022-12-17T02:29:50.537Z,11.60
2022-12-17T02:32:37.714Z,11.49
2022-12-17T02:35:32.591Z,11.46
2022-12-17T02:38:18.133Z,11.49
2022-12-17T02:41:05.895Z,11.44
2022-12-17T02:43:52.872Z,11.52
2022-12-17T02:46:39.257Z,11.54
2022-12-17T02:49:24.504Z,11.52
2022-12-17T02:52:13.016Z,11.45
2022-12-17T02:54:58.490Z,11.42
2022-12-17T02:57:46.527Z,11.44
2022-12-17T03:00:34.906Z,11.45
2022-12-17T03:03:20.261Z,11.45
2022-12-17T03:06:05.749Z,11.48
2022-12-17T03:08:52.161Z,11.50
2022-12-17T03:11:37.980Z,11.53
2022-12-17T03:14:23.445Z,11.58
2022-12-17T03:17:09.274Z,11.54
2022-12-17T03:19:57.757Z,11.56
2022-12-17T03:22:43.396Z,11.57
2022-12-17T03:25:29.004Z,11.59
2022-12-17T03:28:14.265Z,11.53
2022-12-17T03:30:59.637Z,11.52
2022-12-17T03:33:47.942Z,11.53
2022-12-17T03:36:36.175Z,11.54
2022-12-17T03:39:22.189Z,11.56
2022-12-17T03:42:07.757Z,11.52
2022-12-17T03:44:53.131Z,11.50
2022-12-17T03:47:40.641Z,11.36
2022-12-17T03:50:27.059Z,11.26
2022-12-17T03:53:12.144Z,11.10
2022-12-17T03:55:57.819Z,11.08
2022-12-17T03:58:43.466Z,11.09
2022-12-17T04:01:29.195Z,11.18
2022-12-17T04:04:14.923Z,11.26
2022-12-17T04:07:00.736Z,11.25
2022-12-17T04:09:46.436Z,11.21
2022-12-17T04:12:32.139Z,11.18
2022-12-17T04:15:17.120Z,11.15
2022-12-17T04:18:02.496Z,11.21
2022-12-17T04:20:47.604Z,11.16
2022-12-17T04:23:33.760Z,11.06
2022-12-17T04:26:19.448Z,10.98
2022-12-17T04:29:04.984Z,10.88
2022-12-17T04:31:50.211Z,10.83
2022-12-17T04:34:35.581Z,10.80
2022-12-17T04:37:20.919Z,10.86
2022-12-17T04:40:06.556Z,10.89
2022-12-17T04:42:51.820Z,10.85
2022-12-17T04:45:37.097Z,10.89
2022-12-17T04:48:24.961Z,10.93
2022-12-17T04:51:10.706Z,10.95
2022-12-17T04:53:55.920Z,10.93
2022-12-17T04:56:41.365Z,10.85
2022-12-17T04:59:26.842Z,10.78
2022-12-17T05:02:12.313Z,10.71
2022-12-17T05:04:57.763Z,10.71
2022-12-17T05:07:43.117Z,10.79
2022-12-17T05:10:28.344Z,10.85
2022-12-17T05:13:18.712Z,10.80
2022-12-17T05:16:04.944Z,10.83
2022-12-17T05:18:50.817Z,10.80
2022-12-17T05:21:36.425Z,10.74
2022-12-17T05:24:21.829Z,10.67
2022-12-17T05:27:07.255Z,10.62
2022-12-17T05:29:52.524Z,10.56
2022-12-17T05:32:37.489Z,10.63
2022-12-17T05:35:22.842Z,10.73
2022-12-17T05:38:08.307Z,10.80
2022-12-17T05:40:53.763Z,10.76
2022-12-17T05:43:39.270Z,10.72
2022-12-17T05:46:25.234Z,10.69
2022-12-17T05:49:11.021Z,10.69
2022-12-17T05:51:56.631Z,10.68
2022-12-17T05:54:42.073Z,10.61
2022-12-17T05:57:27.242Z,10.64
2022-12-17T06:00:12.535Z,10.70
2022-12-17T06:02:58.714Z,10.77
2022-12-17T06:05:43.959Z,10.81
2022-12-17T06:08:29.113Z,10.88
2022-12-17T06:11:18.276Z,10.96
2022-12-17T06:14:03.881Z,10.95
2022-12-17T06:16:49.543Z,10.90
2022-12-17T06:19:35.123Z,10.85
2022-12-17T06:22:20.412Z,10.77
2022-12-17T06:25:05.602Z,10.70
2022-12-17T06:27:50.572Z,10.69
2022-12-17T06:30:35.977Z,10.67
2022-12-17T06:33:23.457Z,10.71
2022-12-17T06:36:15.412Z,10.73
2022-12-17T06:39:05.275Z,10.77
2022-12-17T06:41:50.920Z,10.71
2022-12-17T06:44:36.790Z,10.71
2022-12-17T06:47:22.249Z,10.71
2022-12-17T06:50:07.700Z,10.67
2022-12-17T06:52:52.725Z,10.56
2022-12-17T06:55:38.022Z,10.64
2022-12-17T06:58:23.370Z,10.66
2022-12-17T07:01:09.911Z,10.53
2022-12-17T07:03:55.306Z,10.48
2022-12-17T07:06:41.251Z,10.50
2022-12-17T07:09:26.676Z,10.53
2022-12-17T07:12:12.173Z,10.58
2022-12-17T07:14:57.732Z,10.61
2022-12-17T07:17:43.143Z,10.58
2022-12-17T07:20:29.510Z,10.51
2022-12-17T07:23:15.664Z,10.57
2022-12-17T07:26:01.155Z,10.66
2022-12-17T07:28:46.467Z,10.72
2022-12-17T07:31:31.868Z,10.80
2022-12-17T07:34:17.365Z,10.84
2022-12-17T07:37:02.982Z,10.84
2022-12-17T07:39:49.164Z,10.87
2022-12-17T07:42:34.557Z,10.96
2022-12-17T07:45:23.224Z,11.02
2022-12-17T07:48:12.908Z,11.13
2022-12-17T07:50:58.663Z,11.16
2022-12-17T07:53:44.235Z,11.19
2022-12-17T07:56:29.925Z,11.27
2022-12-17T07:59:15.223Z,11.31
2022-12-17T08:02:01.008Z,11.40
2022-12-17T08:04:46.630Z,11.45
2022-12-17T08:07:31.827Z,11.48
2022-12-17T08:10:17.301Z,11.51
2022-12-17T08:13:15.510Z,11.54
2022-12-17T08:16:00.972Z,11.57
2022-12-17T08:18:46.601Z,11.61
2022-12-17T08:21:32.199Z,11.63
2022-12-17T08:24:17.757Z,11.68
2022-12-17T08:27:03.155Z,11.74
2022-12-17T08:29:49.184Z,11.80
2022-12-17T08:32:34.685Z,11.83
2022-12-17T08:35:20.457Z,11.92
2022-12-17T08:38:05.876Z,11.94
2022-12-17T08:40:51.393Z,11.99
2022-12-17T08:43:37.470Z,12.04
2022-12-17T08:46:23.961Z,12.08
2022-12-17T08:49:12.778Z,12.11
2022-12-17T08:51:58.340Z,12.19
2022-12-17T08:54:43.597Z,12.17
2022-12-17T08:57:32.441Z,12.21
2022-12-17T09:00:20.971Z,12.42
2022-12-17T09:03:06.083Z,12.48
2022-12-17T09:05:52.297Z,12.46
2022-12-17T09:08:38.127Z,12.42
2022-12-17T09:11:23.676Z,12.37
2022-12-17T09:14:08.901Z,12.31
2022-12-17T09:16:54.325Z,12.28
2022-12-17T09:19:39.934Z,12.23
2022-12-17T09:22:25.311Z,12.20
2022-12-17T09:25:10.684Z,12.18
2022-12-17T09:27:56.275Z,12.12
2022-12-17T09:30:41.954Z,12.20
2022-12-17T09:33:32.635Z,12.33
2022-12-17T09:36:18.304Z,12.41
2022-12-17T09:39:03.618Z,12.44
2022-12-17T09:42:04.393Z,12.54
2022-12-17T09:45:04.992Z,12.61
2022-12-17T09:48:08.960Z,12.59
2022-12-17T09:50:55.097Z,12.58
2022-12-17T09:53:54.451Z,12.59
2022-12-17T09:56:45.699Z,12.62
2022-12-17T10:00:00.321Z,12.56
2022-12-17T10:02:51.099Z,12.55
2022-12-17T10:05:45.365Z,12.55
2022-12-17T10:08:37.241Z,12.54
2022-12-17T10:11:40.690Z,12.50
2022-12-17T10:14:42.900Z,12.50
2022-12-17T10:17:43.303Z,12.51
2022-12-17T10:20:48.485Z,12.55
2022-12-17T10:23:44.207Z,12.59
2022-12-17T10:26:45.335Z,12.60
2022-12-17T10:29:42.466Z,12.63
2022-12-17T10:32:40.111Z,12.73
2022-12-17T10:36:04.308Z,12.87
2022-12-17T10:38:50.377Z,13.07
2022-12-17T10:41:44.210Z,13.21
2022-12-17T10:44:52.188Z,13.44
2022-12-17T10:47:50.435Z,13.56
2022-12-17T10:50:39.366Z,13.73
2022-12-17T10:53:40.557Z,13.75
2022-12-17T10:56:38.997Z,13.88
2022-12-17T10:59:31.728Z,14.03
2022-12-17T11:02:18.418Z,14.06
2022-12-17T11:05:12.809Z,14.13
2022-12-17T11:08:03.227Z,14.27
2022-12-17T11:10:54.337Z,14.44
2022-12-17T11:13:49.780Z,14.51
2022-12-17T11:16:43.619Z,14.52
2022-12-17T11:19:31.820Z,14.48
2022-12-17T11:22:41.326Z,14.55
2022-12-17T11:25:52.882Z,14.55
2022-12-17T11:28:48.141Z,14.64
2022-12-17T11:31:36.843Z,14.61
2022-12-17T11:34:46.419Z,14.58
2022-12-17T11:37:32.003Z,14.60
2022-12-17T11:40:36.058Z,14.69
2022-12-17T11:43:24.421Z,14.72
2022-12-17T11:46:43.998Z,14.58
2022-12-17T11:49:58.541Z,14.70
2022-12-17T11:52:59.545Z,14.64
2022-12-17T11:56:18.326Z,14.57
2022-12-17T11:59:14.210Z,14.53
2022-12-17T12:02:16.994Z,14.52
2022-12-17T12:05:08.323Z,14.47
2022-12-17T12:08:09.518Z,14.53
2022-12-17T12:11:06.818Z,14.45
2022-12-17T12:14:12.844Z,14.41
2022-12-17T12:17:01.372Z,14.52
2022-12-17T12:20:00.814Z,14.50
2022-12-17T12:22:57.982Z,14.56
2022-12-17T12:26:11.503Z,14.69
2022-12-17T12:29:38.180Z,14.82
2022-12-17T12:32:34.575Z,14.86
2022-12-17T12:35:22.761Z,14.92
2022-12-17T12:38:08.189Z,14.82
2022-12-17T12:41:03.007Z,14.78
2022-12-17T12:44:01.476Z,14.89
2022-12-17T12:46:49.707Z,14.84
2022-12-17T12:49:44.356Z,14.90
2022-12-17T12:52:42.755Z,14.89
2022-12-17T12:55:28.537Z,14.85
2022-12-17T12:58:18.418Z,14.89
2022-12-17T13:01:06.573Z,14.81
2022-12-17T13:03:56.731Z,14.75
2022-12-17T13:06:45.307Z,14.69
2022-12-17T13:09:15.297Z,14.57
2022-12-17T13:11:48.467Z,14.53
2022-12-17T13:14:24.182Z,14.62
2022-12-17T13:16:56.366Z,14.70
2022-12-17T13:19:35.723Z,14.65
2022-12-17T13:22:20.043Z,14.60
2022-12-17T13:25:10.537Z,14.60
2022-12-17T13:27:41.009Z,14.68
2022-12-17T13:30:23.017Z,14.69
2022-12-17T13:33:32.649Z,14.63
2022-12-17T13:36:10.138Z,14.66
2022-12-17T13:38:43.072Z,14.70
2022-12-17T13:41:19.324Z,14.80
2022-12-17T13:43:50.629Z,14.80
2022-12-17T13:46:47.847Z,14.77
2022-12-17T13:49:24.689Z,14.70
2022-12-17T13:52:17.064Z,14.61
2022-12-17T13:54:43.992Z,14.49
2022-12-17T13:57:19.697Z,14.46
2022-12-17T13:59:55.205Z,14.44
2022-12-17T14:02:29.834Z,14.38
2022-12-17T14:05:04.017Z,14.38
2022-12-17T14:07:38.222Z,14.38
2022-12-17T14:10:06.200Z,14.45
2022-12-17T14:12:35.459Z,14.36
2022-12-17T14:15:10.971Z,14.29
2022-12-17T14:17:44.265Z,14.26
2022-12-17T14:20:14.794Z,14.16
2022-12-17T14:22:51.278Z,14.12
2022-12-17T14:25:24.686Z,14.04
2022-12-17T14:27:53.221Z,14.00
2022-12-17T14:30:23.237Z,13.98
2022-12-17T14:32:50.164Z,13.95
2022-12-17T14:35:28.277Z,13.88
2022-12-17T14:37:55.414Z,13.88
2022-12-17T14:40:25.811Z,13.83
2022-12-17T14:43:00.012Z,13.75
2022-12-17T14:45:28.918Z,13.69
2022-12-17T14:47:58.686Z,13.66
2022-12-17T14:50:35.425Z,13.74
2022-12-17T14:53:26.306Z,13.66
2022-12-17T14:55:58.101Z,13.64
2022-12-17T14:58:26.709Z,13.61
2022-12-17T15:00:59.963Z,13.53
2022-12-17T15:03:29.199Z,13.52
2022-12-17T15:06:02.917Z,13.50
2022-12-17T15:08:36.216Z,13.44
2022-12-17T15:11:03.885Z,13.39
2022-12-17T15:13:30.752Z,13.34
2022-12-17T15:15:57.694Z,13.28
2022-12-17T15:18:25.205Z,13.20
2022-12-17T15:20:52.238Z,13.12
2022-12-17T15:23:22.363Z,13.00
2022-12-17T15:25:51.325Z,12.89
2022-12-17T15:28:19.691Z,12.82
2022-12-17T15:30:47.098Z,12.75
2022-12-17T15:33:14.115Z,12.58
2022-12-17T15:35:41.867Z,12.48
2022-12-17T15:38:11.236Z,12.44
2022-12-17T15:40:38.298Z,12.41
2022-12-17T15:43:11.396Z,12.34
2022-12-17T15:45:43.499Z,12.31
2022-12-17T15:48:12.074Z,12.26
2022-12-17T15:50:38.996Z,12.23
2022-12-17T15:53:06.102Z,12.17
2022-12-17T15:55:33.148Z,11.97
2022-12-17T15:57:59.865Z,11.74
2022-12-17T16:00:26.929Z,11.62
2022-12-17T16:02:53.909Z,11.55
2022-12-17T16:05:22.258Z,11.50
2022-12-17T16:07:50.434Z,11.35
2022-12-17T16:10:17.555Z,11.40
2022-12-17T16:12:44.689Z,11.45
2022-12-17T16:15:12.983Z,11.50
2022-12-17T16:17:40.008Z,11.50
2022-12-17T16:20:07.759Z,11.44
2022-12-17T16:22:34.553Z,11.47
2022-12-17T16:25:01.423Z,11.50
2022-12-17T16:27:28.229Z,11.35
2022-12-17T16:29:55.098Z,11.35
2022-12-17T16:32:22.056Z,11.21
2022-12-17T16:34:48.952Z,11.17
2022-12-17T16:37:15.855Z,11.03
2022-12-17T16:39:43.725Z,11.07
2022-12-17T16:42:11.529Z,10.95
2022-12-17T16:44:38.287Z,10.78
2022-12-17T16:47:05.071Z,10.69
2022-12-17T16:49:32.115Z,10.56
2022-12-17T16:52:00.327Z,10.36
2022-12-17T16:54:30.917Z,10.26
2022-12-17T16:57:00.798Z,10.23
2022-12-17T16:59:28.734Z,10.25
2022-12-17T17:01:57.229Z,10.40
2022-12-17T17:04:24.117Z,10.56
2022-12-17T17:06:53.930Z,10.66
2022-12-17T17:09:22.406Z,10.64
2022-12-17T17:11:52.141Z,10.66
2022-12-17T17:14:19.868Z,10.74
2022-12-17T17:16:46.680Z,10.80
2022-12-17T17:19:14.000Z,10.82
2022-12-17T17:21:43.785Z,10.72
2022-12-17T17:24:21.460Z,10.64
2022-12-17T17:26:50.527Z,10.66
2022-12-17T17:29:18.085Z,10.64
2022-12-17T17:34:32.468Z,10.55
2022-12-17T17:36:59.292Z,10.59
2022-12-17T17:39:27.319Z,10.62
2022-12-17T17:41:54.112Z,10.59
2022-12-17T17:44:21.422Z,10.46
2022-12-17T17:46:48.341Z,10.35
2022-12-17T17:49:15.503Z,10.34
2022-12-17T17:54:30.895Z,9.94
2022-12-17T17:56:57.778Z,9.89
2022-12-17T17:59:31.200Z,9.99
2022-12-17T18:02:01.006Z,10.12
2022-12-17T18:04:28.172Z,10.16
2022-12-17T18:09:42.032Z,10.06
2022-12-17T18:12:27.403Z,10.12
2022-12-17T18:15:13.725Z,10.17
2022-12-17T18:17:42.687Z,10.21
2022-12-17T18:20:10.430Z,10.23
2022-12-17T18:22:37.756Z,10.08
2022-12-17T18:25:05.667Z,10.02
2022-12-17T18:27:32.671Z,9.47
2022-12-17T18:30:00.279Z,9.27
2022-12-17T18:32:27.135Z,9.22
2022-12-17T18:34:54.372Z,9.37
2022-12-17T18:37:21.259Z,9.41
2022-12-17T18:39:49.333Z,9.51
2022-12-17T18:42:35.082Z,9.38
2022-12-17T18:45:02.392Z,9.25
2022-12-17T18:47:29.344Z,9.19
2022-12-17T18:49:56.154Z,9.21
2022-12-17T18:52:24.283Z,9.26
2022-12-17T18:54:51.270Z,9.37
2022-12-17T18:57:18.042Z,9.50
2022-12-17T18:59:45.042Z,9.58
2022-12-17T19:02:13.204Z,9.51
2022-12-17T19:04:42.029Z,9.36
2022-12-17T19:07:08.957Z,9.31
2022-12-17T19:09:36.341Z,9.33
2022-12-17T19:12:05.726Z,9.43
2022-12-17T19:14:34.185Z,9.28
2022-12-17T19:17:01.109Z,9.13
2022-12-17T19:19:33.866Z,9.02
2022-12-17T19:22:00.919Z,8.78
2022-12-17T19:24:28.088Z,8.87
2022-12-17T19:26:55.053Z,8.94
2022-12-17T19:29:22.188Z,9.08
2022-12-17T19:31:49.246Z,9.04
2022-12-17T19:34:20.197Z,8.96
2022-12-17T19:36:47.695Z,9.04
2022-12-17T19:39:17.266Z,9.22
2022-12-17T19:41:44.661Z,9.14
2022-12-17T19:44:13.808Z,9.27
2022-12-17T19:46:41.542Z,9.35
2022-12-17T19:49:13.518Z,9.10
2022-12-17T19:51:43.123Z,8.91
2022-12-17T19:54:12.557Z,8.83
2022-12-17T19:56:39.675Z,8.89
2022-12-17T19:59:08.206Z,8.98
2022-12-17T20:01:38.397Z,9.04
2022-12-17T20:04:05.738Z,9.18
2022-12-17T20:06:34.352Z,9.15
2022-12-17T20:09:02.567Z,9.10
2022-12-17T20:11:35.907Z,9.08
2022-12-17T20:14:16.897Z,9.18
2022-12-17T20:16:49.357Z,9.24
2022-12-17T20:19:27.829Z,9.09
2022-12-17T20:21:55.556Z,9.00
2022-12-17T20:24:28.847Z,8.83
2022-12-17T20:26:58.041Z,9.00
2022-12-17T20:29:25.837Z,9.05
2022-12-17T20:31:53.694Z,9.09
2022-12-17T20:34:21.648Z,9.16
2022-12-17T20:36:49.077Z,9.22
2022-12-17T20:39:16.109Z,9.18
2022-12-17T20:41:44.391Z,8.90
2022-12-17T20:44:13.665Z,8.70
2022-12-17T20:46:43.981Z,8.70
2022-12-17T20:49:12.376Z,8.85
2022-12-17T20:51:39.508Z,8.67
2022-12-17T20:54:08.356Z,8.80
2022-12-17T20:56:36.340Z,8.80
2022-12-17T20:59:06.053Z,8.83
2022-12-17T21:01:36.538Z,8.83
2022-12-17T21:04:06.441Z,8.62
2022-12-17T21:06:39.474Z,8.62
2022-12-17T21:09:06.372Z,8.70
2022-12-17T21:11:35.015Z,8.52
2022-12-17T21:14:25.803Z,8.36
2022-12-17T21:16:54.997Z,8.22
2022-12-17T21:19:21.810Z,8.14
2022-12-17T21:21:49.116Z,8.22
2022-12-17T21:24:16.002Z,8.43
2022-12-17T21:26:44.545Z,8.58
2022-12-17T21:29:11.936Z,8.74
2022-12-17T21:31:41.841Z,8.70
2022-12-17T21:34:13.899Z,8.73
2022-12-17T21:36:41.296Z,8.74
2022-12-17T21:39:11.334Z,8.77
2022-12-17T21:41:42.575Z,8.61
2022-12-17T21:44:15.443Z,8.53
2022-12-17T21:46:43.582Z,8.59
2022-12-17T21:49:15.283Z,8.55
2022-12-17T21:51:42.226Z,8.63
2022-12-17T21:54:11.446Z,8.58
2022-12-17T21:56:41.443Z,8.56
2022-12-17T21:59:08.288Z,8.54
2022-12-17T22:01:35.275Z,8.54
2022-12-17T22:04:04.347Z,8.61
2022-12-17T22:06:37.916Z,8.63
2022-12-17T22:09:30.078Z,8.68
2022-12-17T22:12:21.663Z,8.69
2022-12-17T22:14:51.706Z,8.37
2022-12-17T22:17:20.520Z,8.46
2022-12-17T22:19:47.503Z,8.47
2022-12-17T22:22:16.678Z,8.35
2022-12-17T22:24:43.494Z,8.12
2022-12-17T22:27:10.503Z,8.16
2022-12-17T22:29:56.055Z,8.09
2022-12-17T22:32:41.706Z,8.19
2022-12-17T22:36:15.016Z,8.38
2022-12-17T22:41:01.871Z,8.40
2022-12-17T22:44:46.800Z,8.20
2022-12-17T22:44:48.866Z,8.17
2022-12-17T22:46:17.269Z,8.02
2022-12-17T22:48:44.545Z,7.93
2022-12-17T22:51:20.648Z,7.98
2022-12-17T22:54:04.592Z,8.05
2022-12-17T22:57:29.832Z,8.13
2022-12-17T22:59:24.200Z,7.98
2022-12-17T23:01:51.022Z,7.92
2022-12-17T23:04:18.133Z,7.71
2022-12-17T23:06:45.989Z,7.80
2022-12-17T23:09:15.091Z,7.95
2022-12-17T23:11:41.906Z,8.03
2022-12-17T23:14:09.431Z,7.90
2022-12-17T23:16:38.817Z,7.82
2022-12-17T23:19:06.330Z,7.63
2022-12-17T23:21:33.291Z,7.78
2022-12-17T23:24:00.175Z,7.94
2022-12-17T23:26:29.363Z,8.03
2022-12-17T23:29:00.447Z,7.94
2022-12-17T23:31:33.393Z,7.91
2022-12-17T23:34:00.344Z,7.77
2022-12-17T23:36:27.959Z,7.69
2022-12-17T23:38:57.308Z,7.69
2022-12-17T23:41:27.002Z,7.79
2022-12-17T23:43:55.218Z,7.91
2022-12-17T23:46:24.061Z,7.75
2022-12-17T23:48:51.542Z,7.49
2022-12-17T23:51:20.366Z,7.43
2022-12-17T23:53:47.595Z,7.41
2022-12-17T23:56:22.821Z,7.30
2022-12-17T23:58:53.926Z,7.27
